Terminal Aerodrome Forecast
Issued by NWS

Home | Current Version | Previous Version | Text Only | Print | Product List | Glossary On
Versions: 1 2 3 4 5 6 7 8 9 10 11 12 13 14 15
671
FTUS44 KTSA 102333
TAFMLC
TAF
KMLC 102333Z 1100/1124 21009KT P6SM SKC
     FM110700 25008KT P6SM SKC
     FM110900 35007KT P6SM SKC=

USA.gov is the U.S. government's official web portal to all federal, state and local government web resources and services.